sensor_id;sensor_type;location;lat;lon;timestamp;P1;durP1;ratioP1;P2;durP2;ratioP2
15202;SDS011;7702;51.046;5.184;2023-07-02T00:01:23;16.47;;;10.90;;
15202;SDS011;7702;51.046;5.184;2023-07-02T00:03:48;21.27;;;10.40;;
15202;SDS011;7702;51.046;5.184;2023-07-02T00:06:14;18.73;;;11.43;;
15202;SDS011;7702;51.046;5.184;2023-07-02T00:08:42;19.83;;;10.83;;
15202;SDS011;7702;51.046;5.184;2023-07-02T00:11:08;18.20;;;11.77;;
15202;SDS011;7702;51.046;5.184;2023-07-02T00:13:37;20.30;;;11.37;;
15202;SDS011;7702;51.046;5.184;2023-07-02T00:16:03;17.97;;;11.03;;
15202;SDS011;7702;51.046;5.184;2023-07-02T00:18:29;19.27;;;11.87;;
15202;SDS011;7702;51.046;5.184;2023-07-02T00:20:59;18.93;;;12.03;;
15202;SDS011;7702;51.046;5.184;2023-07-02T00:23:27;19.83;;;12.23;;
15202;SDS011;7702;51.046;5.184;2023-07-02T00:25:54;21.93;;;12.20;;
15202;SDS011;7702;51.046;5.184;2023-07-02T00:28:20;19.47;;;12.30;;
15202;SDS011;7702;51.046;5.184;2023-07-02T00:30:45;19.20;;;11.90;;
15202;SDS011;7702;51.046;5.184;2023-07-02T00:33:11;19.80;;;12.37;;
15202;SDS011;7702;51.046;5.184;2023-07-02T00:35:37;20.23;;;12.17;;
15202;SDS011;7702;51.046;5.184;2023-07-02T00:38:03;17.73;;;12.03;;
15202;SDS011;7702;51.046;5.184;2023-07-02T00:40:29;19.63;;;12.27;;
15202;SDS011;7702;51.046;5.184;2023-07-02T00:42:55;23.60;;;13.03;;
15202;SDS011;7702;51.046;5.184;2023-07-02T00:45:21;21.67;;;12.57;;
15202;SDS011;7702;51.046;5.184;2023-07-02T00:47:47;21.50;;;12.93;;
15202;SDS011;7702;51.046;5.184;2023-07-02T00:50:13;18.37;;;12.33;;
15202;SDS011;7702;51.046;5.184;2023-07-02T00:52:39;23.53;;;13.27;;
15202;SDS011;7702;51.046;5.184;2023-07-02T00:55:05;23.20;;;13.27;;
15202;SDS011;7702;51.046;5.184;2023-07-02T00:57:31;21.80;;;13.53;;
15202;SDS011;7702;51.046;5.184;2023-07-02T01:00:00;19.93;;;13.53;;
15202;SDS011;7702;51.046;5.184;2023-07-02T01:02:26;23.33;;;12.83;;
15202;SDS011;7702;51.046;5.184;2023-07-02T01:04:55;21.27;;;13.57;;
15202;SDS011;7702;51.046;5.184;2023-07-02T01:07:24;24.53;;;13.43;;
15202;SDS011;7702;51.046;5.184;2023-07-02T01:09:50;22.43;;;14.47;;
15202;SDS011;7702;51.046;5.184;2023-07-02T01:12:17;20.83;;;14.07;;
15202;SDS011;7702;51.046;5.184;2023-07-02T01:14:45;21.83;;;13.93;;
15202;SDS011;7702;51.046;5.184;2023-07-02T01:17:18;25.57;;;14.40;;
15202;SDS011;7702;51.046;5.184;2023-07-02T01:19:54;23.97;;;14.20;;
15202;SDS011;7702;51.046;5.184;2023-07-02T01:22:24;20.20;;;14.00;;
15202;SDS011;7702;51.046;5.184;2023-07-02T01:24:52;24.03;;;14.60;;
15202;SDS011;7702;51.046;5.184;2023-07-02T01:27:19;23.23;;;15.10;;
15202;SDS011;7702;51.046;5.184;2023-07-02T01:29:45;22.50;;;13.77;;
15202;SDS011;7702;51.046;5.184;2023-07-02T01:32:11;23.00;;;14.30;;
15202;SDS011;7702;51.046;5.184;2023-07-02T01:34:38;25.33;;;14.73;;
15202;SDS011;7702;51.046;5.184;2023-07-02T01:37:04;22.63;;;15.03;;
15202;SDS011;7702;51.046;5.184;2023-07-02T01:39:30;24.63;;;16.23;;
15202;SDS011;7702;51.046;5.184;2023-07-02T01:42:06;25.93;;;15.40;;
15202;SDS011;7702;51.046;5.184;2023-07-02T01:44:38;24.50;;;15.93;;
15202;SDS011;7702;51.046;5.184;2023-07-02T01:47:04;24.13;;;15.33;;
15202;SDS011;7702;51.046;5.184;2023-07-02T01:49:30;24.80;;;15.60;;
15202;SDS011;7702;51.046;5.184;2023-07-02T01:51:56;30.93;;;17.17;;
15202;SDS011;7702;51.046;5.184;2023-07-02T01:54:23;27.23;;;16.93;;
15202;SDS011;7702;51.046;5.184;2023-07-02T01:56:52;25.53;;;15.83;;
15202;SDS011;7702;51.046;5.184;2023-07-02T01:59:18;27.33;;;16.23;;
15202;SDS011;7702;51.046;5.184;2023-07-02T02:01:43;25.87;;;17.27;;
15202;SDS011;7702;51.046;5.184;2023-07-02T02:04:09;24.80;;;15.27;;
15202;SDS011;7702;51.046;5.184;2023-07-02T02:06:36;23.53;;;16.73;;
15202;SDS011;7702;51.046;5.184;2023-07-02T02:09:03;26.43;;;17.27;;
15202;SDS011;7702;51.046;5.184;2023-07-02T02:11:29;22.97;;;14.93;;
15202;SDS011;7702;51.046;5.184;2023-07-02T02:13:56;25.93;;;17.00;;
15202;SDS011;7702;51.046;5.184;2023-07-02T02:16:22;24.90;;;16.43;;
15202;SDS011;7702;51.046;5.184;2023-07-02T02:18:48;27.23;;;16.73;;
15202;SDS011;7702;51.046;5.184;2023-07-02T02:21:17;31.30;;;18.27;;
15202;SDS011;7702;51.046;5.184;2023-07-02T02:23:43;26.43;;;16.60;;
15202;SDS011;7702;51.046;5.184;2023-07-02T02:26:09;27.33;;;17.33;;
15202;SDS011;7702;51.046;5.184;2023-07-02T02:28:34;24.70;;;16.57;;
15202;SDS011;7702;51.046;5.184;2023-07-02T02:31:00;31.07;;;17.93;;
15202;SDS011;7702;51.046;5.184;2023-07-02T02:33:26;31.00;;;18.10;;
15202;SDS011;7702;51.046;5.184;2023-07-02T02:35:52;29.13;;;17.37;;
15202;SDS011;7702;51.046;5.184;2023-07-02T02:38:18;27.77;;;17.40;;
15202;SDS011;7702;51.046;5.184;2023-07-02T02:40:43;27.97;;;17.30;;
15202;SDS011;7702;51.046;5.184;2023-07-02T02:43:09;27.00;;;17.53;;
15202;SDS011;7702;51.046;5.184;2023-07-02T02:45:35;28.73;;;18.13;;
15202;SDS011;7702;51.046;5.184;2023-07-02T02:48:00;31.87;;;18.50;;
15202;SDS011;7702;51.046;5.184;2023-07-02T02:50:26;33.50;;;18.70;;
15202;SDS011;7702;51.046;5.184;2023-07-02T02:52:52;26.57;;;17.07;;
15202;SDS011;7702;51.046;5.184;2023-07-02T02:55:18;31.73;;;18.17;;
15202;SDS011;7702;51.046;5.184;2023-07-02T02:57:43;28.17;;;18.13;;
15202;SDS011;7702;51.046;5.184;2023-07-02T03:00:09;31.67;;;18.87;;
15202;SDS011;7702;51.046;5.184;2023-07-02T03:02:36;33.70;;;17.97;;
15202;SDS011;7702;51.046;5.184;2023-07-02T03:05:03;27.77;;;17.67;;
15202;SDS011;7702;51.046;5.184;2023-07-02T03:07:29;26.17;;;17.87;;
15202;SDS011;7702;51.046;5.184;2023-07-02T03:09:56;29.20;;;18.37;;
15202;SDS011;7702;51.046;5.184;2023-07-02T03:12:22;28.43;;;18.60;;
15202;SDS011;7702;51.046;5.184;2023-07-02T03:14:50;31.47;;;17.93;;
15202;SDS011;7702;51.046;5.184;2023-07-02T03:17:19;29.20;;;18.07;;
15202;SDS011;7702;51.046;5.184;2023-07-02T03:19:45;30.33;;;17.97;;
15202;SDS011;7702;51.046;5.184;2023-07-02T03:22:11;33.03;;;18.73;;
15202;SDS011;7702;51.046;5.184;2023-07-02T03:24:37;31.93;;;18.90;;
15202;SDS011;7702;51.046;5.184;2023-07-02T03:27:03;29.67;;;18.93;;
15202;SDS011;7702;51.046;5.184;2023-07-02T03:29:29;32.27;;;18.70;;
15202;SDS011;7702;51.046;5.184;2023-07-02T03:31:54;30.97;;;19.63;;
15202;SDS011;7702;51.046;5.184;2023-07-02T03:34:20;28.17;;;18.73;;
15202;SDS011;7702;51.046;5.184;2023-07-02T03:36:47;33.57;;;18.97;;
15202;SDS011;7702;51.046;5.184;2023-07-02T03:39:13;34.67;;;19.70;;
15202;SDS011;7702;51.046;5.184;2023-07-02T03:41:39;33.50;;;19.87;;
15202;SDS011;7702;51.046;5.184;2023-07-02T03:44:04;30.83;;;19.40;;
15202;SDS011;7702;51.046;5.184;2023-07-02T03:46:30;33.10;;;19.30;;
15202;SDS011;7702;51.046;5.184;2023-07-02T03:48:56;32.40;;;20.43;;
15202;SDS011;7702;51.046;5.184;2023-07-02T03:51:22;29.30;;;19.27;;
15202;SDS011;7702;51.046;5.184;2023-07-02T03:53:48;30.30;;;19.40;;
15202;SDS011;7702;51.046;5.184;2023-07-02T03:56:14;33.23;;;18.93;;
15202;SDS011;7702;51.046;5.184;2023-07-02T03:58:40;35.43;;;20.77;;
15202;SDS011;7702;51.046;5.184;2023-07-02T04:01:06;32.03;;;19.63;;
15202;SDS011;7702;51.046;5.184;2023-07-02T04:03:32;35.70;;;19.87;;
15202;SDS011;7702;51.046;5.184;2023-07-02T04:05:57;32.67;;;19.13;;
15202;SDS011;7702;51.046;5.184;2023-07-02T04:08:23;31.30;;;19.97;;
15202;SDS011;7702;51.046;5.184;2023-07-02T04:10:53;33.17;;;20.63;;
15202;SDS011;7702;51.046;5.184;2023-07-02T04:13:19;33.93;;;19.13;;
15202;SDS011;7702;51.046;5.184;2023-07-02T04:15:45;35.83;;;19.73;;
15202;SDS011;7702;51.046;5.184;2023-07-02T04:18:11;37.10;;;21.77;;
15202;SDS011;7702;51.046;5.184;2023-07-02T04:20:37;39.27;;;19.77;;
15202;SDS011;7702;51.046;5.184;2023-07-02T04:23:04;33.27;;;20.30;;
15202;SDS011;7702;51.046;5.184;2023-07-02T04:25:30;30.70;;;19.40;;
15202;SDS011;7702;51.046;5.184;2023-07-02T04:27:56;36.47;;;21.17;;
15202;SDS011;7702;51.046;5.184;2023-07-02T04:30:23;32.00;;;19.80;;
15202;SDS011;7702;51.046;5.184;2023-07-02T04:32:50;34.40;;;20.20;;
15202;SDS011;7702;51.046;5.184;2023-07-02T04:35:17;37.57;;;19.23;;
15202;SDS011;7702;51.046;5.184;2023-07-02T04:37:43;31.30;;;19.53;;
15202;SDS011;7702;51.046;5.184;2023-07-02T04:40:09;35.87;;;21.40;;
15202;SDS011;7702;51.046;5.184;2023-07-02T04:42:38;32.20;;;19.70;;
15202;SDS011;7702;51.046;5.184;2023-07-02T04:45:05;36.37;;;20.63;;
15202;SDS011;7702;51.046;5.184;2023-07-02T04:47:31;34.77;;;19.77;;
15202;SDS011;7702;51.046;5.184;2023-07-02T04:49:58;38.83;;;20.73;;
15202;SDS011;7702;51.046;5.184;2023-07-02T04:52:24;39.00;;;21.40;;
15202;SDS011;7702;51.046;5.184;2023-07-02T04:54:50;35.67;;;20.40;;
15202;SDS011;7702;51.046;5.184;2023-07-02T04:57:15;36.70;;;21.30;;
15202;SDS011;7702;51.046;5.184;2023-07-02T04:59:42;36.67;;;20.80;;
15202;SDS011;7702;51.046;5.184;2023-07-02T05:02:07;36.93;;;21.37;;
15202;SDS011;7702;51.046;5.184;2023-07-02T05:04:33;38.20;;;22.53;;
15202;SDS011;7702;51.046;5.184;2023-07-02T05:07:00;38.30;;;21.50;;
15202;SDS011;7702;51.046;5.184;2023-07-02T05:09:26;38.70;;;21.60;;
15202;SDS011;7702;51.046;5.184;2023-07-02T05:11:52;37.00;;;20.53;;
15202;SDS011;7702;51.046;5.184;2023-07-02T05:14:18;35.13;;;20.90;;
15202;SDS011;7702;51.046;5.184;2023-07-02T05:16:44;38.40;;;21.73;;
15202;SDS011;7702;51.046;5.184;2023-07-02T05:19:09;34.60;;;21.30;;
15202;SDS011;7702;51.046;5.184;2023-07-02T05:21:35;35.57;;;20.87;;
15202;SDS011;7702;51.046;5.184;2023-07-02T05:24:01;39.70;;;21.37;;
15202;SDS011;7702;51.046;5.184;2023-07-02T05:26:27;39.70;;;21.60;;
15202;SDS011;7702;51.046;5.184;2023-07-02T05:28:53;38.10;;;22.33;;
15202;SDS011;7702;51.046;5.184;2023-07-02T05:31:18;37.33;;;21.07;;
15202;SDS011;7702;51.046;5.184;2023-07-02T05:33:44;40.03;;;21.30;;
15202;SDS011;7702;51.046;5.184;2023-07-02T05:36:10;38.47;;;20.90;;
15202;SDS011;7702;51.046;5.184;2023-07-02T05:38:35;45.47;;;22.73;;
15202;SDS011;7702;51.046;5.184;2023-07-02T05:41:04;39.53;;;22.03;;
15202;SDS011;7702;51.046;5.184;2023-07-02T05:43:30;39.67;;;23.27;;
15202;SDS011;7702;51.046;5.184;2023-07-02T05:45:57;37.20;;;21.43;;
15202;SDS011;7702;51.046;5.184;2023-07-02T05:48:27;39.97;;;22.27;;
15202;SDS011;7702;51.046;5.184;2023-07-02T05:50:53;42.27;;;22.10;;
15202;SDS011;7702;51.046;5.184;2023-07-02T05:53:20;39.17;;;21.97;;
15202;SDS011;7702;51.046;5.184;2023-07-02T05:55:45;35.37;;;22.07;;
15202;SDS011;7702;51.046;5.184;2023-07-02T05:58:12;37.30;;;22.27;;
15202;SDS011;7702;51.046;5.184;2023-07-02T06:00:37;39.37;;;21.53;;
15202;SDS011;7702;51.046;5.184;2023-07-02T06:03:06;38.97;;;23.87;;
15202;SDS011;7702;51.046;5.184;2023-07-02T06:05:32;37.43;;;22.07;;
15202;SDS011;7702;51.046;5.184;2023-07-02T06:07:58;36.50;;;22.30;;
15202;SDS011;7702;51.046;5.184;2023-07-02T06:10:23;37.00;;;22.10;;
15202;SDS011;7702;51.046;5.184;2023-07-02T06:12:49;36.90;;;23.50;;
15202;SDS011;7702;51.046;5.184;2023-07-02T06:15:15;42.23;;;22.67;;
15202;SDS011;7702;51.046;5.184;2023-07-02T06:17:40;36.93;;;22.67;;
15202;SDS011;7702;51.046;5.184;2023-07-02T06:20:06;36.03;;;20.87;;
15202;SDS011;7702;51.046;5.184;2023-07-02T06:22:32;41.83;;;22.13;;
15202;SDS011;7702;51.046;5.184;2023-07-02T06:24:58;42.00;;;22.53;;
15202;SDS011;7702;51.046;5.184;2023-07-02T06:27:24;35.13;;;21.63;;
15202;SDS011;7702;51.046;5.184;2023-07-02T06:29:49;40.40;;;21.93;;
15202;SDS011;7702;51.046;5.184;2023-07-02T06:32:16;38.30;;;21.73;;
15202;SDS011;7702;51.046;5.184;2023-07-02T06:34:42;39.80;;;20.87;;
15202;SDS011;7702;51.046;5.184;2023-07-02T06:37:08;37.73;;;21.40;;
15202;SDS011;7702;51.046;5.184;2023-07-02T06:39:33;39.50;;;22.40;;
15202;SDS011;7702;51.046;5.184;2023-07-02T06:41:59;38.33;;;20.70;;
15202;SDS011;7702;51.046;5.184;2023-07-02T06:44:26;31.93;;;20.37;;
15202;SDS011;7702;51.046;5.184;2023-07-02T06:46:52;34.57;;;20.43;;
15202;SDS011;7702;51.046;5.184;2023-07-02T06:49:17;35.57;;;19.97;;
15202;SDS011;7702;51.046;5.184;2023-07-02T06:51:43;36.73;;;19.93;;
15202;SDS011;7702;51.046;5.184;2023-07-02T06:54:09;37.37;;;19.20;;
15202;SDS011;7702;51.046;5.184;2023-07-02T06:56:34;39.80;;;18.10;;
15202;SDS011;7702;51.046;5.184;2023-07-02T06:59:00;33.80;;;20.23;;
15202;SDS011;7702;51.046;5.184;2023-07-02T07:01:26;33.57;;;18.50;;
15202;SDS011;7702;51.046;5.184;2023-07-02T07:03:52;33.07;;;18.80;;
15202;SDS011;7702;51.046;5.184;2023-07-02T07:06:17;30.00;;;17.60;;
15202;SDS011;7702;51.046;5.184;2023-07-02T07:08:43;30.33;;;18.33;;
15202;SDS011;7702;51.046;5.184;2023-07-02T07:11:09;35.17;;;18.93;;
15202;SDS011;7702;51.046;5.184;2023-07-02T07:13:35;31.27;;;18.33;;
15202;SDS011;7702;51.046;5.184;2023-07-02T07:16:01;30.37;;;17.20;;
15202;SDS011;7702;51.046;5.184;2023-07-02T07:18:26;24.17;;;14.90;;
15202;SDS011;7702;51.046;5.184;2023-07-02T07:20:52;27.40;;;15.23;;
15202;SDS011;7702;51.046;5.184;2023-07-02T07:23:18;26.57;;;15.37;;
15202;SDS011;7702;51.046;5.184;2023-07-02T07:25:44;25.57;;;15.20;;
15202;SDS011;7702;51.046;5.184;2023-07-02T07:28:10;29.90;;;15.43;;
15202;SDS011;7702;51.046;5.184;2023-07-02T07:30:40;30.93;;;16.10;;
15202;SDS011;7702;51.046;5.184;2023-07-02T07:33:09;27.43;;;16.10;;
15202;SDS011;7702;51.046;5.184;2023-07-02T07:35:35;27.77;;;15.27;;
15202;SDS011;7702;51.046;5.184;2023-07-02T07:38:02;30.47;;;16.13;;
15202;SDS011;7702;51.046;5.184;2023-07-02T07:40:27;30.27;;;16.80;;
15202;SDS011;7702;51.046;5.184;2023-07-02T07:42:54;31.33;;;16.50;;
15202;SDS011;7702;51.046;5.184;2023-07-02T07:45:19;28.13;;;16.43;;
15202;SDS011;7702;51.046;5.184;2023-07-02T07:47:45;27.27;;;15.57;;
15202;SDS011;7702;51.046;5.184;2023-07-02T07:50:11;24.70;;;16.77;;
15202;SDS011;7702;51.046;5.184;2023-07-02T07:52:37;27.70;;;16.13;;
15202;SDS011;7702;51.046;5.184;2023-07-02T07:55:07;25.37;;;16.37;;
15202;SDS011;7702;51.046;5.184;2023-07-02T07:57:34;27.40;;;16.70;;
15202;SDS011;7702;51.046;5.184;2023-07-02T08:00:01;33.57;;;18.87;;
15202;SDS011;7702;51.046;5.184;2023-07-02T08:02:29;28.87;;;17.53;;
15202;SDS011;7702;51.046;5.184;2023-07-02T08:04:54;30.40;;;16.90;;
15202;SDS011;7702;51.046;5.184;2023-07-02T08:07:20;28.57;;;16.57;;
15202;SDS011;7702;51.046;5.184;2023-07-02T08:09:46;33.93;;;17.13;;
15202;SDS011;7702;51.046;5.184;2023-07-02T08:12:11;29.80;;;17.17;;
15202;SDS011;7702;51.046;5.184;2023-07-02T08:14:37;30.33;;;16.77;;
15202;SDS011;7702;51.046;5.184;2023-07-02T08:17:03;29.77;;;15.40;;
15202;SDS011;7702;51.046;5.184;2023-07-02T08:19:28;28.83;;;16.03;;
15202;SDS011;7702;51.046;5.184;2023-07-02T08:21:54;31.47;;;16.97;;
15202;SDS011;7702;51.046;5.184;2023-07-02T08:24:20;28.20;;;15.20;;
15202;SDS011;7702;51.046;5.184;2023-07-02T08:26:45;22.60;;;14.13;;
15202;SDS011;7702;51.046;5.184;2023-07-02T08:29:12;24.90;;;13.57;;
15202;SDS011;7702;51.046;5.184;2023-07-02T08:31:38;21.70;;;14.17;;
15202;SDS011;7702;51.046;5.184;2023-07-02T08:34:05;22.30;;;13.50;;
15202;SDS011;7702;51.046;5.184;2023-07-02T08:36:31;23.10;;;13.10;;
15202;SDS011;7702;51.046;5.184;2023-07-02T08:38:57;19.70;;;12.30;;
15202;SDS011;7702;51.046;5.184;2023-07-02T08:41:22;17.60;;;11.80;;
15202;SDS011;7702;51.046;5.184;2023-07-02T08:43:49;23.67;;;12.23;;
15202;SDS011;7702;51.046;5.184;2023-07-02T08:46:16;23.87;;;12.80;;
15202;SDS011;7702;51.046;5.184;2023-07-02T08:48:42;19.63;;;12.43;;
15202;SDS011;7702;51.046;5.184;2023-07-02T08:51:08;18.27;;;12.47;;
15202;SDS011;7702;51.046;5.184;2023-07-02T08:53:33;15.97;;;11.23;;
15202;SDS011;7702;51.046;5.184;2023-07-02T08:56:00;15.70;;;10.90;;
15202;SDS011;7702;51.046;5.184;2023-07-02T08:58:26;15.93;;;10.63;;
15202;SDS011;7702;51.046;5.184;2023-07-02T09:03:37;15.33;;;8.93;;
15202;SDS011;7702;51.046;5.184;2023-07-02T09:06:04;15.03;;;8.90;;
15202;SDS011;7702;51.046;5.184;2023-07-02T09:08:31;12.70;;;8.77;;
15202;SDS011;7702;51.046;5.184;2023-07-02T09:13:44;16.47;;;8.77;;
15202;SDS011;7702;51.046;5.184;2023-07-02T09:16:21;13.87;;;8.90;;
15202;SDS011;7702;51.046;5.184;2023-07-02T09:18:57;16.50;;;9.13;;
15202;SDS011;7702;51.046;5.184;2023-07-02T09:21:27;18.53;;;10.40;;
15202;SDS011;7702;51.046;5.184;2023-07-02T09:24:11;14.70;;;9.17;;
15202;SDS011;7702;51.046;5.184;2023-07-02T09:26:44;16.03;;;9.40;;
15202;SDS011;7702;51.046;5.184;2023-07-02T09:29:21;12.70;;;8.37;;
15202;SDS011;7702;51.046;5.184;2023-07-02T09:31:49;11.77;;;7.93;;
15202;SDS011;7702;51.046;5.184;2023-07-02T09:34:15;14.20;;;8.77;;
15202;SDS011;7702;51.046;5.184;2023-07-02T09:36:41;13.17;;;7.67;;
15202;SDS011;7702;51.046;5.184;2023-07-02T09:39:10;15.97;;;8.57;;
15202;SDS011;7702;51.046;5.184;2023-07-02T09:41:38;15.13;;;9.07;;
15202;SDS011;7702;51.046;5.184;2023-07-02T09:44:06;15.50;;;8.30;;
15202;SDS011;7702;51.046;5.184;2023-07-02T09:46:33;13.93;;;8.77;;
15202;SDS011;7702;51.046;5.184;2023-07-02T09:49:01;14.27;;;8.40;;
15202;SDS011;7702;51.046;5.184;2023-07-02T09:51:29;13.33;;;8.27;;
15202;SDS011;7702;51.046;5.184;2023-07-02T09:53:55;12.87;;;7.87;;
15202;SDS011;7702;51.046;5.184;2023-07-02T09:56:21;17.20;;;8.13;;
15202;SDS011;7702;51.046;5.184;2023-07-02T09:58:47;13.40;;;8.37;;
15202;SDS011;7702;51.046;5.184;2023-07-02T10:01:12;11.97;;;7.37;;
15202;SDS011;7702;51.046;5.184;2023-07-02T10:03:38;14.03;;;7.53;;
15202;SDS011;7702;51.046;5.184;2023-07-02T10:06:06;14.93;;;7.80;;
15202;SDS011;7702;51.046;5.184;2023-07-02T10:08:32;13.97;;;8.00;;
15202;SDS011;7702;51.046;5.184;2023-07-02T10:11:11;12.10;;;7.90;;
15202;SDS011;7702;51.046;5.184;2023-07-02T10:13:40;13.07;;;7.87;;
15202;SDS011;7702;51.046;5.184;2023-07-02T10:16:07;11.37;;;7.67;;
15202;SDS011;7702;51.046;5.184;2023-07-02T10:18:32;10.73;;;7.47;;
15202;SDS011;7702;51.046;5.184;2023-07-02T10:20:59;12.97;;;7.70;;
15202;SDS011;7702;51.046;5.184;2023-07-02T10:23:34;15.57;;;7.83;;
15202;SDS011;7702;51.046;5.184;2023-07-02T10:28:56;11.17;;;7.43;;
15202;SDS011;7702;51.046;5.184;2023-07-02T10:31:25;10.13;;;7.30;;
15202;SDS011;7702;51.046;5.184;2023-07-02T10:33:51;16.50;;;7.93;;
15202;SDS011;7702;51.046;5.184;2023-07-02T10:36:17;12.97;;;8.10;;
15202;SDS011;7702;51.046;5.184;2023-07-02T10:38:44;11.57;;;7.60;;
15202;SDS011;7702;51.046;5.184;2023-07-02T10:41:10;15.70;;;8.73;;
15202;SDS011;7702;51.046;5.184;2023-07-02T10:43:37;14.77;;;8.70;;
15202;SDS011;7702;51.046;5.184;2023-07-02T10:46:03;16.17;;;8.10;;
15202;SDS011;7702;51.046;5.184;2023-07-02T10:48:30;14.63;;;8.67;;
15202;SDS011;7702;51.046;5.184;2023-07-02T10:50:56;13.40;;;9.07;;
15202;SDS011;7702;51.046;5.184;2023-07-02T10:53:21;16.30;;;8.93;;
15202;SDS011;7702;51.046;5.184;2023-07-02T10:55:54;15.80;;;9.20;;
15202;SDS011;7702;51.046;5.184;2023-07-02T10:58:21;16.93;;;9.17;;
15202;SDS011;7702;51.046;5.184;2023-07-02T11:00:48;16.97;;;8.90;;
15202;SDS011;7702;51.046;5.184;2023-07-02T11:03:24;16.50;;;10.03;;
15202;SDS011;7702;51.046;5.184;2023-07-02T11:05:51;16.57;;;10.53;;
15202;SDS011;7702;51.046;5.184;2023-07-02T11:08:18;14.73;;;9.77;;
15202;SDS011;7702;51.046;5.184;2023-07-02T11:10:46;14.13;;;9.23;;
15202;SDS011;7702;51.046;5.184;2023-07-02T11:13:19;15.83;;;9.93;;
15202;SDS011;7702;51.046;5.184;2023-07-02T11:15:46;14.97;;;10.03;;
15202;SDS011;7702;51.046;5.184;2023-07-02T11:18:12;17.77;;;10.30;;
15202;SDS011;7702;51.046;5.184;2023-07-02T11:20:40;14.87;;;9.90;;
15202;SDS011;7702;51.046;5.184;2023-07-02T11:23:20;18.87;;;10.37;;
15202;SDS011;7702;51.046;5.184;2023-07-02T11:25:59;16.67;;;10.20;;
15202;SDS011;7702;51.046;5.184;2023-07-02T11:28:26;17.03;;;10.60;;
15202;SDS011;7702;51.046;5.184;2023-07-02T11:30:53;17.23;;;9.73;;
15202;SDS011;7702;51.046;5.184;2023-07-02T11:33:18;15.60;;;9.90;;
15202;SDS011;7702;51.046;5.184;2023-07-02T11:35:46;17.47;;;9.50;;
15202;SDS011;7702;51.046;5.184;2023-07-02T11:38:11;16.63;;;10.07;;
15202;SDS011;7702;51.046;5.184;2023-07-02T11:40:38;20.17;;;11.03;;
15202;SDS011;7702;51.046;5.184;2023-07-02T11:43:03;18.93;;;11.07;;
15202;SDS011;7702;51.046;5.184;2023-07-02T11:45:31;21.20;;;11.00;;
15202;SDS011;7702;51.046;5.184;2023-07-02T11:47:56;13.17;;;9.90;;
15202;SDS011;7702;51.046;5.184;2023-07-02T11:50:22;17.77;;;10.67;;
15202;SDS011;7702;51.046;5.184;2023-07-02T11:52:48;17.70;;;10.33;;
15202;SDS011;7702;51.046;5.184;2023-07-02T11:55:13;16.03;;;9.97;;
15202;SDS011;7702;51.046;5.184;2023-07-02T11:57:39;17.00;;;11.07;;
15202;SDS011;7702;51.046;5.184;2023-07-02T12:00:05;17.10;;;10.20;;
15202;SDS011;7702;51.046;5.184;2023-07-02T12:02:31;15.30;;;9.87;;
15202;SDS011;7702;51.046;5.184;2023-07-02T12:04:57;18.00;;;10.80;;
15202;SDS011;7702;51.046;5.184;2023-07-02T12:07:23;20.27;;;10.17;;
15202;SDS011;7702;51.046;5.184;2023-07-02T12:09:49;19.07;;;10.57;;
15202;SDS011;7702;51.046;5.184;2023-07-02T12:12:15;17.57;;;10.47;;
15202;SDS011;7702;51.046;5.184;2023-07-02T12:14:41;17.97;;;10.20;;
15202;SDS011;7702;51.046;5.184;2023-07-02T12:17:08;20.63;;;11.53;;
15202;SDS011;7702;51.046;5.184;2023-07-02T12:19:37;17.47;;;11.17;;
15202;SDS011;7702;51.046;5.184;2023-07-02T12:22:04;19.17;;;10.43;;
15202;SDS011;7702;51.046;5.184;2023-07-02T12:24:30;17.67;;;10.90;;
15202;SDS011;7702;51.046;5.184;2023-07-02T12:26:55;17.47;;;10.60;;
15202;SDS011;7702;51.046;5.184;2023-07-02T12:29:21;15.97;;;10.07;;
15202;SDS011;7702;51.046;5.184;2023-07-02T12:31:47;19.07;;;10.97;;
15202;SDS011;7702;51.046;5.184;2023-07-02T12:34:13;15.30;;;10.03;;
15202;SDS011;7702;51.046;5.184;2023-07-02T12:36:39;18.17;;;11.00;;
15202;SDS011;7702;51.046;5.184;2023-07-02T12:39:05;17.63;;;11.40;;
15202;SDS011;7702;51.046;5.184;2023-07-02T12:41:31;16.07;;;9.80;;
15202;SDS011;7702;51.046;5.184;2023-07-02T12:43:57;17.00;;;9.83;;
15202;SDS011;7702;51.046;5.184;2023-07-02T12:46:22;18.53;;;10.03;;
15202;SDS011;7702;51.046;5.184;2023-07-02T12:48:49;13.53;;;9.33;;
15202;SDS011;7702;51.046;5.184;2023-07-02T12:51:15;15.20;;;10.17;;
15202;SDS011;7702;51.046;5.184;2023-07-02T12:53:40;16.43;;;9.57;;
15202;SDS011;7702;51.046;5.184;2023-07-02T12:56:06;16.60;;;9.90;;
15202;SDS011;7702;51.046;5.184;2023-07-02T12:58:32;14.87;;;9.63;;
15202;SDS011;7702;51.046;5.184;2023-07-02T13:00:57;15.50;;;10.10;;
15202;SDS011;7702;51.046;5.184;2023-07-02T13:03:23;15.00;;;10.73;;
15202;SDS011;7702;51.046;5.184;2023-07-02T13:05:50;13.83;;;10.00;;
15202;SDS011;7702;51.046;5.184;2023-07-02T13:08:16;17.87;;;10.57;;
15202;SDS011;7702;51.046;5.184;2023-07-02T13:10:41;17.97;;;10.17;;
15202;SDS011;7702;51.046;5.184;2023-07-02T13:13:08;17.73;;;10.27;;
15202;SDS011;7702;51.046;5.184;2023-07-02T13:15:33;13.33;;;9.73;;
15202;SDS011;7702;51.046;5.184;2023-07-02T13:18:00;19.00;;;10.93;;
15202;SDS011;7702;51.046;5.184;2023-07-02T13:20:26;15.57;;;9.27;;
15202;SDS011;7702;51.046;5.184;2023-07-02T13:22:51;14.73;;;9.13;;
15202;SDS011;7702;51.046;5.184;2023-07-02T13:25:17;13.77;;;9.17;;
15202;SDS011;7702;51.046;5.184;2023-07-02T13:27:43;14.50;;;9.27;;
15202;SDS011;7702;51.046;5.184;2023-07-02T13:30:09;14.60;;;9.20;;
15202;SDS011;7702;51.046;5.184;2023-07-02T13:32:35;14.40;;;8.67;;
15202;SDS011;7702;51.046;5.184;2023-07-02T13:35:01;15.70;;;9.43;;
15202;SDS011;7702;51.046;5.184;2023-07-02T13:37:27;17.47;;;9.00;;
15202;SDS011;7702;51.046;5.184;2023-07-02T13:39:52;14.20;;;9.33;;
15202;SDS011;7702;51.046;5.184;2023-07-02T13:42:18;17.63;;;9.70;;
15202;SDS011;7702;51.046;5.184;2023-07-02T13:44:44;14.90;;;9.60;;
15202;SDS011;7702;51.046;5.184;2023-07-02T13:47:10;15.77;;;9.13;;
15202;SDS011;7702;51.046;5.184;2023-07-02T13:49:36;13.87;;;8.83;;
15202;SDS011;7702;51.046;5.184;2023-07-02T13:52:02;14.63;;;8.93;;
15202;SDS011;7702;51.046;5.184;2023-07-02T13:54:27;14.57;;;8.60;;
15202;SDS011;7702;51.046;5.184;2023-07-02T13:56:55;14.50;;;8.50;;
15202;SDS011;7702;51.046;5.184;2023-07-02T13:59:21;13.20;;;9.90;;
15202;SDS011;7702;51.046;5.184;2023-07-02T14:01:47;19.67;;;9.77;;
15202;SDS011;7702;51.046;5.184;2023-07-02T14:04:13;13.77;;;9.50;;
15202;SDS011;7702;51.046;5.184;2023-07-02T14:06:40;12.60;;;8.87;;
15202;SDS011;7702;51.046;5.184;2023-07-02T14:09:06;17.53;;;10.10;;
15202;SDS011;7702;51.046;5.184;2023-07-02T14:11:33;14.80;;;9.00;;
15202;SDS011;7702;51.046;5.184;2023-07-02T14:13:59;14.20;;;8.27;;
15202;SDS011;7702;51.046;5.184;2023-07-02T14:16:25;11.23;;;8.10;;
15202;SDS011;7702;51.046;5.184;2023-07-02T14:18:51;13.63;;;8.70;;
15202;SDS011;7702;51.046;5.184;2023-07-02T14:21:17;12.83;;;8.43;;
15202;SDS011;7702;51.046;5.184;2023-07-02T14:23:43;14.37;;;8.83;;
15202;SDS011;7702;51.046;5.184;2023-07-02T14:26:09;17.13;;;9.70;;
15202;SDS011;7702;51.046;5.184;2023-07-02T14:28:35;14.63;;;8.53;;
15202;SDS011;7702;51.046;5.184;2023-07-02T14:31:01;13.90;;;8.53;;
15202;SDS011;7702;51.046;5.184;2023-07-02T14:33:29;10.17;;;8.13;;
15202;SDS011;7702;51.046;5.184;2023-07-02T14:35:57;13.10;;;8.03;;
15202;SDS011;7702;51.046;5.184;2023-07-02T14:38:23;14.37;;;8.00;;
15202;SDS011;7702;51.046;5.184;2023-07-02T14:40:49;12.97;;;8.07;;
15202;SDS011;7702;51.046;5.184;2023-07-02T14:43:16;14.13;;;8.67;;